sensor_id;sensor_type;location;lat;lon;timestamp;P1;durP1;ratioP1;P2;durP2;ratioP2
38865;SDS011;62686;48.984;8.394;2022-11-03T00:01:14;12.50;;;5.40;;
38865;SDS011;62686;48.984;8.394;2022-11-03T00:03:43;14.23;;;6.23;;
38865;SDS011;62686;48.984;8.394;2022-11-03T00:06:11;8.80;;;5.33;;
38865;SDS011;62686;48.984;8.394;2022-11-03T00:08:40;13.60;;;6.30;;
38865;SDS011;62686;48.984;8.394;2022-11-03T00:11:09;11.57;;;5.77;;
38865;SDS011;62686;48.984;8.394;2022-11-03T00:13:39;16.03;;;6.00;;
38865;SDS011;62686;48.984;8.394;2022-11-03T00:16:09;16.37;;;6.93;;
38865;SDS011;62686;48.984;8.394;2022-11-03T00:18:38;14.33;;;6.80;;
38865;SDS011;62686;48.984;8.394;2022-11-03T00:21:09;13.77;;;6.47;;
38865;SDS011;62686;48.984;8.394;2022-11-03T00:23:38;14.43;;;6.57;;
38865;SDS011;62686;48.984;8.394;2022-11-03T00:26:08;14.97;;;6.47;;
38865;SDS011;62686;48.984;8.394;2022-11-03T00:28:39;13.67;;;6.50;;
38865;SDS011;62686;48.984;8.394;2022-11-03T00:31:09;17.87;;;6.17;;
38865;SDS011;62686;48.984;8.394;2022-11-03T00:33:38;13.47;;;6.47;;
38865;SDS011;62686;48.984;8.394;2022-11-03T00:36:09;21.30;;;7.30;;
38865;SDS011;62686;48.984;8.394;2022-11-03T00:38:39;14.03;;;6.80;;
38865;SDS011;62686;48.984;8.394;2022-11-03T00:41:08;16.40;;;6.23;;
38865;SDS011;62686;48.984;8.394;2022-11-03T00:43:37;10.40;;;6.27;;
38865;SDS011;62686;48.984;8.394;2022-11-03T00:46:06;14.50;;;6.20;;
38865;SDS011;62686;48.984;8.394;2022-11-03T00:48:35;14.20;;;6.77;;
38865;SDS011;62686;48.984;8.394;2022-11-03T00:51:05;11.40;;;6.63;;
38865;SDS011;62686;48.984;8.394;2022-11-03T00:53:36;12.47;;;6.23;;
38865;SDS011;62686;48.984;8.394;2022-11-03T00:56:06;16.57;;;6.47;;
38865;SDS011;62686;48.984;8.394;2022-11-03T00:58:36;11.60;;;6.27;;
38865;SDS011;62686;48.984;8.394;2022-11-03T01:01:05;18.93;;;5.70;;
38865;SDS011;62686;48.984;8.394;2022-11-03T01:03:35;10.77;;;5.90;;
38865;SDS011;62686;48.984;8.394;2022-11-03T01:06:04;14.37;;;6.30;;
38865;SDS011;62686;48.984;8.394;2022-11-03T01:08:52;12.27;;;6.07;;
38865;SDS011;62686;48.984;8.394;2022-11-03T01:11:21;13.10;;;5.60;;
38865;SDS011;62686;48.984;8.394;2022-11-03T01:14:08;12.73;;;6.43;;
38865;SDS011;62686;48.984;8.394;2022-11-03T01:16:37;13.57;;;5.50;;
38865;SDS011;62686;48.984;8.394;2022-11-03T01:19:05;14.00;;;6.10;;
38865;SDS011;62686;48.984;8.394;2022-11-03T01:21:34;12.17;;;5.90;;
38865;SDS011;62686;48.984;8.394;2022-11-03T01:24:04;9.97;;;5.40;;
38865;SDS011;62686;48.984;8.394;2022-11-03T01:26:32;15.00;;;6.57;;
38865;SDS011;62686;48.984;8.394;2022-11-03T01:29:00;11.10;;;5.93;;
38865;SDS011;62686;48.984;8.394;2022-11-03T01:31:28;10.63;;;5.57;;
38865;SDS011;62686;48.984;8.394;2022-11-03T01:33:57;12.07;;;5.90;;
38865;SDS011;62686;48.984;8.394;2022-11-03T01:36:25;11.53;;;5.80;;
38865;SDS011;62686;48.984;8.394;2022-11-03T01:38:55;9.97;;;5.67;;
38865;SDS011;62686;48.984;8.394;2022-11-03T01:41:26;14.07;;;5.67;;
38865;SDS011;62686;48.984;8.394;2022-11-03T01:47:11;14.33;;;5.30;;
38865;SDS011;62686;48.984;8.394;2022-11-03T01:49:45;12.00;;;5.47;;
38865;SDS011;62686;48.984;8.394;2022-11-03T01:52:21;13.57;;;5.57;;
38865;SDS011;62686;48.984;8.394;2022-11-03T01:54:54;10.10;;;5.27;;
38865;SDS011;62686;48.984;8.394;2022-11-03T01:57:30;11.43;;;5.10;;
38865;SDS011;62686;48.984;8.394;2022-11-03T02:00:03;11.50;;;4.87;;
38865;SDS011;62686;48.984;8.394;2022-11-03T02:02:33;9.27;;;5.10;;
38865;SDS011;62686;48.984;8.394;2022-11-03T02:05:01;10.70;;;5.37;;
38865;SDS011;62686;48.984;8.394;2022-11-03T02:07:33;10.97;;;5.20;;
38865;SDS011;62686;48.984;8.394;2022-11-03T02:10:03;12.27;;;4.83;;
38865;SDS011;62686;48.984;8.394;2022-11-03T02:12:35;11.70;;;6.07;;
38865;SDS011;62686;48.984;8.394;2022-11-03T02:15:04;10.63;;;5.27;;
38865;SDS011;62686;48.984;8.394;2022-11-03T02:17:35;17.63;;;5.30;;
38865;SDS011;62686;48.984;8.394;2022-11-03T02:20:05;10.00;;;5.27;;
38865;SDS011;62686;48.984;8.394;2022-11-03T02:25:46;9.80;;;5.20;;
38865;SDS011;62686;48.984;8.394;2022-11-03T02:28:17;11.77;;;5.20;;
38865;SDS011;62686;48.984;8.394;2022-11-03T02:30:49;7.30;;;5.10;;
38865;SDS011;62686;48.984;8.394;2022-11-03T02:33:29;10.03;;;5.53;;
38865;SDS011;62686;48.984;8.394;2022-11-03T02:36:04;9.27;;;5.43;;
38865;SDS011;62686;48.984;8.394;2022-11-03T02:38:40;8.20;;;4.60;;
38865;SDS011;62686;48.984;8.394;2022-11-03T02:41:15;12.37;;;5.57;;
38865;SDS011;62686;48.984;8.394;2022-11-03T02:43:45;9.07;;;5.10;;
38865;SDS011;62686;48.984;8.394;2022-11-03T02:46:15;12.00;;;5.70;;
38865;SDS011;62686;48.984;8.394;2022-11-03T02:48:44;9.07;;;4.87;;
38865;SDS011;62686;48.984;8.394;2022-11-03T02:51:14;10.27;;;4.57;;
38865;SDS011;62686;48.984;8.394;2022-11-03T02:53:43;11.30;;;5.53;;
38865;SDS011;62686;48.984;8.394;2022-11-03T02:56:17;7.43;;;4.50;;
38865;SDS011;62686;48.984;8.394;2022-11-03T02:58:51;11.30;;;5.10;;
38865;SDS011;62686;48.984;8.394;2022-11-03T03:01:25;9.43;;;5.07;;
38865;SDS011;62686;48.984;8.394;2022-11-03T03:03:58;9.20;;;5.10;;
38865;SDS011;62686;48.984;8.394;2022-11-03T03:06:31;13.23;;;5.10;;
38865;SDS011;62686;48.984;8.394;2022-11-03T03:09:04;9.20;;;5.10;;
38865;SDS011;62686;48.984;8.394;2022-11-03T03:11:40;12.43;;;6.13;;
38865;SDS011;62686;48.984;8.394;2022-11-03T03:14:11;13.10;;;5.70;;
38865;SDS011;62686;48.984;8.394;2022-11-03T03:16:42;14.07;;;5.57;;
38865;SDS011;62686;48.984;8.394;2022-11-03T03:19:19;9.47;;;5.07;;
38865;SDS011;62686;48.984;8.394;2022-11-03T03:21:52;14.03;;;5.30;;
38865;SDS011;62686;48.984;8.394;2022-11-03T03:24:25;10.10;;;4.80;;
38865;SDS011;62686;48.984;8.394;2022-11-03T03:27:01;9.53;;;5.37;;
38865;SDS011;62686;48.984;8.394;2022-11-03T03:29:35;12.50;;;5.40;;
38865;SDS011;62686;48.984;8.394;2022-11-03T03:32:06;8.67;;;4.77;;
38865;SDS011;62686;48.984;8.394;2022-11-03T03:34:37;10.97;;;5.07;;
38865;SDS011;62686;48.984;8.394;2022-11-03T03:37:08;6.40;;;4.70;;
38865;SDS011;62686;48.984;8.394;2022-11-03T03:39:40;12.97;;;5.47;;
38865;SDS011;62686;48.984;8.394;2022-11-03T03:42:14;15.03;;;5.70;;
38865;SDS011;62686;48.984;8.394;2022-11-03T03:44:46;15.10;;;5.83;;
38865;SDS011;62686;48.984;8.394;2022-11-03T03:47:17;12.37;;;5.80;;
38865;SDS011;62686;48.984;8.394;2022-11-03T03:49:49;9.73;;;5.47;;
38865;SDS011;62686;48.984;8.394;2022-11-03T03:52:17;10.70;;;5.50;;
38865;SDS011;62686;48.984;8.394;2022-11-03T03:54:46;10.73;;;5.63;;
38865;SDS011;62686;48.984;8.394;2022-11-03T03:57:16;10.57;;;5.50;;
38865;SDS011;62686;48.984;8.394;2022-11-03T03:59:46;9.17;;;5.17;;
38865;SDS011;62686;48.984;8.394;2022-11-03T04:02:15;9.83;;;5.27;;
38865;SDS011;62686;48.984;8.394;2022-11-03T04:04:43;11.10;;;5.63;;
38865;SDS011;62686;48.984;8.394;2022-11-03T04:07:11;14.60;;;6.47;;
38865;SDS011;62686;48.984;8.394;2022-11-03T04:09:56;10.30;;;5.70;;
38865;SDS011;62686;48.984;8.394;2022-11-03T04:12:26;12.73;;;5.97;;
38865;SDS011;62686;48.984;8.394;2022-11-03T04:15:12;9.30;;;4.93;;
38865;SDS011;62686;48.984;8.394;2022-11-03T04:17:57;11.07;;;5.40;;
38865;SDS011;62686;48.984;8.394;2022-11-03T04:20:45;9.87;;;5.87;;
38865;SDS011;62686;48.984;8.394;2022-11-03T04:23:31;7.90;;;5.30;;
38865;SDS011;62686;48.984;8.394;2022-11-03T04:25:59;11.60;;;5.20;;
38865;SDS011;62686;48.984;8.394;2022-11-03T04:28:29;7.37;;;5.23;;
38865;SDS011;62686;48.984;8.394;2022-11-03T04:30:57;11.93;;;5.20;;
38865;SDS011;62686;48.984;8.394;2022-11-03T04:33:25;11.57;;;5.80;;
38865;SDS011;62686;48.984;8.394;2022-11-03T04:35:56;10.03;;;4.97;;
38865;SDS011;62686;48.984;8.394;2022-11-03T04:38:26;12.53;;;4.90;;
38865;SDS011;62686;48.984;8.394;2022-11-03T04:40:56;10.70;;;5.17;;
38865;SDS011;62686;48.984;8.394;2022-11-03T04:43:31;6.47;;;4.90;;
38865;SDS011;62686;48.984;8.394;2022-11-03T04:46:00;13.13;;;4.83;;
38865;SDS011;62686;48.984;8.394;2022-11-03T04:48:29;8.63;;;5.13;;
38865;SDS011;62686;48.984;8.394;2022-11-03T04:50:58;8.57;;;4.83;;
38865;SDS011;62686;48.984;8.394;2022-11-03T04:53:27;8.27;;;4.63;;
38865;SDS011;62686;48.984;8.394;2022-11-03T04:55:59;7.77;;;4.80;;
38865;SDS011;62686;48.984;8.394;2022-11-03T04:58:33;8.97;;;5.03;;
38865;SDS011;62686;48.984;8.394;2022-11-03T05:01:02;9.10;;;5.23;;
38865;SDS011;62686;48.984;8.394;2022-11-03T05:03:31;10.77;;;5.80;;
38865;SDS011;62686;48.984;8.394;2022-11-03T05:06:04;10.07;;;5.67;;
38865;SDS011;62686;48.984;8.394;2022-11-03T05:08:38;9.27;;;5.17;;
38865;SDS011;62686;48.984;8.394;2022-11-03T05:11:14;8.87;;;4.93;;
38865;SDS011;62686;48.984;8.394;2022-11-03T05:13:48;8.23;;;4.80;;
38865;SDS011;62686;48.984;8.394;2022-11-03T05:16:17;10.20;;;4.37;;
38865;SDS011;62686;48.984;8.394;2022-11-03T05:18:45;8.37;;;5.40;;
38865;SDS011;62686;48.984;8.394;2022-11-03T05:21:17;12.23;;;5.17;;
38865;SDS011;62686;48.984;8.394;2022-11-03T05:23:47;12.17;;;5.30;;
38865;SDS011;62686;48.984;8.394;2022-11-03T05:26:19;8.63;;;5.70;;
38865;SDS011;62686;48.984;8.394;2022-11-03T05:28:53;11.97;;;5.23;;
38865;SDS011;62686;48.984;8.394;2022-11-03T05:31:25;16.43;;;6.30;;
38865;SDS011;62686;48.984;8.394;2022-11-03T05:33:55;11.13;;;5.90;;
38865;SDS011;62686;48.984;8.394;2022-11-03T05:36:25;16.87;;;6.47;;
38865;SDS011;62686;48.984;8.394;2022-11-03T05:38:57;11.40;;;5.77;;
38865;SDS011;62686;48.984;8.394;2022-11-03T05:41:29;11.83;;;5.80;;
38865;SDS011;62686;48.984;8.394;2022-11-03T05:44:00;13.20;;;5.33;;
38865;SDS011;62686;48.984;8.394;2022-11-03T05:46:38;11.63;;;5.13;;
38865;SDS011;62686;48.984;8.394;2022-11-03T05:49:08;14.33;;;5.53;;
38865;SDS011;62686;48.984;8.394;2022-11-03T05:51:38;11.73;;;5.13;;
38865;SDS011;62686;48.984;8.394;2022-11-03T05:54:10;7.20;;;4.63;;
38865;SDS011;62686;48.984;8.394;2022-11-03T05:56:47;11.53;;;5.03;;
38865;SDS011;62686;48.984;8.394;2022-11-03T05:59:19;10.47;;;5.07;;
38865;SDS011;62686;48.984;8.394;2022-11-03T06:01:49;12.27;;;5.60;;
38865;SDS011;62686;48.984;8.394;2022-11-03T06:04:19;10.63;;;6.13;;
38865;SDS011;62686;48.984;8.394;2022-11-03T06:06:58;11.70;;;5.60;;
38865;SDS011;62686;48.984;8.394;2022-11-03T06:09:28;12.83;;;5.73;;
38865;SDS011;62686;48.984;8.394;2022-11-03T06:12:01;8.77;;;5.60;;
38865;SDS011;62686;48.984;8.394;2022-11-03T06:14:33;11.67;;;6.47;;
38865;SDS011;62686;48.984;8.394;2022-11-03T06:17:04;10.53;;;5.77;;
38865;SDS011;62686;48.984;8.394;2022-11-03T06:19:37;9.80;;;5.13;;
38865;SDS011;62686;48.984;8.394;2022-11-03T06:22:10;12.93;;;5.60;;
38865;SDS011;62686;48.984;8.394;2022-11-03T06:24:43;10.03;;;5.87;;
38865;SDS011;62686;48.984;8.394;2022-11-03T06:27:12;12.67;;;5.87;;
38865;SDS011;62686;48.984;8.394;2022-11-03T06:29:43;9.97;;;5.30;;
38865;SDS011;62686;48.984;8.394;2022-11-03T06:32:16;12.87;;;5.67;;
38865;SDS011;62686;48.984;8.394;2022-11-03T06:34:45;11.63;;;5.83;;
38865;SDS011;62686;48.984;8.394;2022-11-03T06:37:19;11.40;;;5.83;;
38865;SDS011;62686;48.984;8.394;2022-11-03T06:39:50;10.13;;;5.50;;
38865;SDS011;62686;48.984;8.394;2022-11-03T06:42:24;9.90;;;6.00;;
38865;SDS011;62686;48.984;8.394;2022-11-03T06:44:59;9.13;;;4.83;;
38865;SDS011;62686;48.984;8.394;2022-11-03T06:47:28;12.83;;;5.50;;
38865;SDS011;62686;48.984;8.394;2022-11-03T06:49:58;11.07;;;4.83;;
38865;SDS011;62686;48.984;8.394;2022-11-03T06:52:28;6.50;;;5.07;;
38865;SDS011;62686;48.984;8.394;2022-11-03T06:57:50;9.33;;;5.27;;
38865;SDS011;62686;48.984;8.394;2022-11-03T07:00:23;11.20;;;5.73;;
38865;SDS011;62686;48.984;8.394;2022-11-03T07:02:59;10.00;;;6.10;;
38865;SDS011;62686;48.984;8.394;2022-11-03T07:05:32;10.30;;;5.13;;
38865;SDS011;62686;48.984;8.394;2022-11-03T07:08:02;11.57;;;5.80;;
38865;SDS011;62686;48.984;8.394;2022-11-03T07:10:37;9.53;;;5.53;;
38865;SDS011;62686;48.984;8.394;2022-11-03T07:13:09;13.73;;;6.07;;
38865;SDS011;62686;48.984;8.394;2022-11-03T07:15:42;13.80;;;5.57;;
38865;SDS011;62686;48.984;8.394;2022-11-03T07:18:13;11.30;;;6.10;;
38865;SDS011;62686;48.984;8.394;2022-11-03T07:20:46;13.10;;;5.47;;
38865;SDS011;62686;48.984;8.394;2022-11-03T07:23:16;9.47;;;5.30;;
38865;SDS011;62686;48.984;8.394;2022-11-03T07:25:50;8.67;;;4.87;;
38865;SDS011;62686;48.984;8.394;2022-11-03T07:28:20;11.93;;;5.60;;
38865;SDS011;62686;48.984;8.394;2022-11-03T07:30:53;10.90;;;4.97;;
38865;SDS011;62686;48.984;8.394;2022-11-03T07:33:23;8.93;;;4.73;;
38865;SDS011;62686;48.984;8.394;2022-11-03T07:35:54;9.43;;;4.90;;
38865;SDS011;62686;48.984;8.394;2022-11-03T07:38:40;7.83;;;4.53;;
38865;SDS011;62686;48.984;8.394;2022-11-03T07:41:10;10.37;;;4.70;;
38865;SDS011;62686;48.984;8.394;2022-11-03T07:43:45;10.97;;;5.03;;
38865;SDS011;62686;48.984;8.394;2022-11-03T07:46:22;7.57;;;4.60;;
38865;SDS011;62686;48.984;8.394;2022-11-03T07:48:52;9.83;;;4.67;;
38865;SDS011;62686;48.984;8.394;2022-11-03T07:51:22;9.87;;;4.23;;
38865;SDS011;62686;48.984;8.394;2022-11-03T07:53:52;8.23;;;4.40;;
38865;SDS011;62686;48.984;8.394;2022-11-03T07:56:23;9.03;;;4.43;;
38865;SDS011;62686;48.984;8.394;2022-11-03T07:58:54;7.57;;;4.43;;
38865;SDS011;62686;48.984;8.394;2022-11-03T08:01:28;11.30;;;5.20;;
38865;SDS011;62686;48.984;8.394;2022-11-03T08:03:59;10.83;;;5.13;;
38865;SDS011;62686;48.984;8.394;2022-11-03T08:06:31;9.47;;;4.57;;
38865;SDS011;62686;48.984;8.394;2022-11-03T08:08:59;11.03;;;4.60;;
38865;SDS011;62686;48.984;8.394;2022-11-03T08:11:28;9.00;;;4.40;;
38865;SDS011;62686;48.984;8.394;2022-11-03T08:13:56;9.83;;;4.70;;
38865;SDS011;62686;48.984;8.394;2022-11-03T08:16:24;6.57;;;4.17;;
38865;SDS011;62686;48.984;8.394;2022-11-03T08:18:59;6.20;;;4.27;;
38865;SDS011;62686;48.984;8.394;2022-11-03T08:21:27;10.97;;;5.20;;
38865;SDS011;62686;48.984;8.394;2022-11-03T08:23:56;7.97;;;4.20;;
38865;SDS011;62686;48.984;8.394;2022-11-03T08:26:25;10.30;;;4.53;;
38865;SDS011;62686;48.984;8.394;2022-11-03T08:28:53;10.63;;;4.20;;
38865;SDS011;62686;48.984;8.394;2022-11-03T08:31:21;8.50;;;4.33;;
38865;SDS011;62686;48.984;8.394;2022-11-03T08:33:50;8.17;;;4.20;;
38865;SDS011;62686;48.984;8.394;2022-11-03T08:36:19;11.80;;;4.60;;
38865;SDS011;62686;48.984;8.394;2022-11-03T08:38:47;13.40;;;4.10;;
38865;SDS011;62686;48.984;8.394;2022-11-03T08:41:16;9.27;;;3.80;;
38865;SDS011;62686;48.984;8.394;2022-11-03T08:43:44;10.40;;;3.97;;
38865;SDS011;62686;48.984;8.394;2022-11-03T08:46:12;8.00;;;3.67;;
38865;SDS011;62686;48.984;8.394;2022-11-03T08:48:42;10.50;;;4.83;;
38865;SDS011;62686;48.984;8.394;2022-11-03T08:51:11;11.07;;;4.53;;
38865;SDS011;62686;48.984;8.394;2022-11-03T08:53:42;6.30;;;4.27;;
38865;SDS011;62686;48.984;8.394;2022-11-03T08:56:11;11.37;;;4.50;;
38865;SDS011;62686;48.984;8.394;2022-11-03T08:58:41;12.53;;;4.60;;
38865;SDS011;62686;48.984;8.394;2022-11-03T09:01:09;9.93;;;4.33;;
38865;SDS011;62686;48.984;8.394;2022-11-03T09:03:37;7.73;;;4.60;;
38865;SDS011;62686;48.984;8.394;2022-11-03T09:06:05;6.63;;;4.10;;
38865;SDS011;62686;48.984;8.394;2022-11-03T09:08:34;9.80;;;4.37;;
38865;SDS011;62686;48.984;8.394;2022-11-03T09:11:24;7.97;;;4.23;;
38865;SDS011;62686;48.984;8.394;2022-11-03T09:13:52;11.47;;;4.47;;
38865;SDS011;62686;48.984;8.394;2022-11-03T09:16:20;12.83;;;4.37;;
38865;SDS011;62686;48.984;8.394;2022-11-03T09:18:48;11.60;;;4.53;;
38865;SDS011;62686;48.984;8.394;2022-11-03T09:21:17;9.67;;;4.10;;
38865;SDS011;62686;48.984;8.394;2022-11-03T09:23:45;10.95;;;5.63;;
38865;SDS011;62686;48.984;8.394;2022-11-03T09:26:13;14.18;;;5.30;;
38865;SDS011;62686;48.984;8.394;2022-11-03T09:28:43;12.52;;;4.70;;
38865;SDS011;62686;48.984;8.394;2022-11-03T09:31:11;7.88;;;4.32;;
38865;SDS011;62686;48.984;8.394;2022-11-03T09:33:39;11.93;;;4.27;;
38865;SDS011;62686;48.984;8.394;2022-11-03T09:36:07;8.88;;;5.35;;
38865;SDS011;62686;48.984;8.394;2022-11-03T09:38:36;9.68;;;3.85;;
38865;SDS011;62686;48.984;8.394;2022-11-03T09:41:04;8.48;;;3.22;;
38865;SDS011;62686;48.984;8.394;2022-11-03T09:43:34;7.70;;;3.60;;
38865;SDS011;62686;48.984;8.394;2022-11-03T09:46:04;9.02;;;4.32;;
38865;SDS011;62686;48.984;8.394;2022-11-03T09:48:32;10.27;;;4.22;;
38865;SDS011;62686;48.984;8.394;2022-11-03T09:51:00;7.28;;;3.88;;
38865;SDS011;62686;48.984;8.394;2022-11-03T09:53:29;6.55;;;3.50;;
38865;SDS011;62686;48.984;8.394;2022-11-03T09:55:57;6.10;;;3.70;;
38865;SDS011;62686;48.984;8.394;2022-11-03T09:58:25;12.80;;;3.95;;
38865;SDS011;62686;48.984;8.394;2022-11-03T10:00:54;11.80;;;4.50;;
38865;SDS011;62686;48.984;8.394;2022-11-03T10:03:23;8.50;;;4.20;;
38865;SDS011;62686;48.984;8.394;2022-11-03T10:05:53;8.85;;;3.80;;
38865;SDS011;62686;48.984;8.394;2022-11-03T10:08:22;8.57;;;4.15;;
38865;SDS011;62686;48.984;8.394;2022-11-03T10:10:53;11.63;;;4.30;;
38865;SDS011;62686;48.984;8.394;2022-11-03T10:13:22;9.65;;;4.63;;
38865;SDS011;62686;48.984;8.394;2022-11-03T10:15:55;8.73;;;3.65;;
38865;SDS011;62686;48.984;8.394;2022-11-03T10:18:25;6.20;;;3.90;;
38865;SDS011;62686;48.984;8.394;2022-11-03T10:20:54;10.68;;;4.55;;
38865;SDS011;62686;48.984;8.394;2022-11-03T10:23:25;11.27;;;4.70;;
38865;SDS011;62686;48.984;8.394;2022-11-03T10:25:55;11.93;;;4.82;;
38865;SDS011;62686;48.984;8.394;2022-11-03T10:28:34;10.45;;;4.65;;
38865;SDS011;62686;48.984;8.394;2022-11-03T10:31:03;7.43;;;4.38;;
38865;SDS011;62686;48.984;8.394;2022-11-03T10:33:38;10.73;;;4.90;;
38865;SDS011;62686;48.984;8.394;2022-11-03T10:36:20;11.75;;;4.00;;
38865;SDS011;62686;48.984;8.394;2022-11-03T10:38:50;9.40;;;3.90;;
38865;SDS011;62686;48.984;8.394;2022-11-03T10:41:21;9.82;;;3.55;;
38865;SDS011;62686;48.984;8.394;2022-11-03T10:43:58;9.00;;;3.80;;
38865;SDS011;62686;48.984;8.394;2022-11-03T10:46:28;8.82;;;3.70;;
38865;SDS011;62686;48.984;8.394;2022-11-03T10:49:18;9.07;;;3.60;;
38865;SDS011;62686;48.984;8.394;2022-11-03T10:51:47;7.07;;;3.50;;
38865;SDS011;62686;48.984;8.394;2022-11-03T10:54:18;7.10;;;3.58;;
38865;SDS011;62686;48.984;8.394;2022-11-03T10:56:47;5.95;;;3.20;;
38865;SDS011;62686;48.984;8.394;2022-11-03T10:59:19;7.78;;;3.75;;
38865;SDS011;62686;48.984;8.394;2022-11-03T11:01:52;7.50;;;3.25;;
38865;SDS011;62686;48.984;8.394;2022-11-03T11:04:22;5.85;;;3.33;;
38865;SDS011;62686;48.984;8.394;2022-11-03T11:06:50;8.95;;;2.90;;
38865;SDS011;62686;48.984;8.394;2022-11-03T11:09:19;6.43;;;2.95;;
38865;SDS011;62686;48.984;8.394;2022-11-03T11:12:00;7.18;;;3.22;;
38865;SDS011;62686;48.984;8.394;2022-11-03T11:14:34;8.85;;;3.30;;
38865;SDS011;62686;48.984;8.394;2022-11-03T11:17:04;8.82;;;3.35;;
38865;SDS011;62686;48.984;8.394;2022-11-03T11:26:13;7.20;;;3.75;;
38865;SDS011;62686;48.984;8.394;2022-11-03T11:35:16;7.25;;;3.50;;
38865;SDS011;62686;48.984;8.394;2022-11-03T11:41:09;9.98;;;3.55;;
38865;SDS011;62686;48.984;8.394;2022-11-03T11:43:38;7.88;;;3.53;;
38865;SDS011;62686;48.984;8.394;2022-11-03T11:49:14;9.05;;;3.45;;
38865;SDS011;62686;48.984;8.394;2022-11-03T11:51:44;9.52;;;3.60;;
38865;SDS011;62686;48.984;8.394;2022-11-03T11:54:13;9.88;;;3.53;;
38865;SDS011;62686;48.984;8.394;2022-11-03T11:56:47;10.40;;;3.47;;
38865;SDS011;62686;48.984;8.394;2022-11-03T11:59:17;4.72;;;2.72;;
38865;SDS011;62686;48.984;8.394;2022-11-03T12:01:50;9.90;;;3.90;;
38865;SDS011;62686;48.984;8.394;2022-11-03T12:04:21;7.57;;;3.60;;
38865;SDS011;62686;48.984;8.394;2022-11-03T12:06:51;7.28;;;3.50;;
38865;SDS011;62686;48.984;8.394;2022-11-03T12:09:22;7.45;;;3.33;;
38865;SDS011;62686;48.984;8.394;2022-11-03T12:11:54;7.28;;;3.63;;
38865;SDS011;62686;48.984;8.394;2022-11-03T12:14:25;8.35;;;3.20;;
38865;SDS011;62686;48.984;8.394;2022-11-03T12:19:58;5.93;;;3.20;;
38865;SDS011;62686;48.984;8.394;2022-11-03T12:22:39;6.22;;;3.40;;
38865;SDS011;62686;48.984;8.394;2022-11-03T12:25:31;6.97;;;3.20;;
38865;SDS011;62686;48.984;8.394;2022-11-03T12:28:01;9.65;;;3.08;;
38865;SDS011;62686;48.984;8.394;2022-11-03T12:30:30;11.43;;;3.65;;
38865;SDS011;62686;48.984;8.394;2022-11-03T12:33:00;10.05;;;3.45;;
38865;SDS011;62686;48.984;8.394;2022-11-03T12:35:28;7.47;;;3.78;;
38865;SDS011;62686;48.984;8.394;2022-11-03T12:37:57;8.07;;;3.80;;
38865;SDS011;62686;48.984;8.394;2022-11-03T12:40:25;11.38;;;4.03;;
38865;SDS011;62686;48.984;8.394;2022-11-03T12:42:53;7.38;;;4.10;;
38865;SDS011;62686;48.984;8.394;2022-11-03T12:45:23;10.38;;;4.05;;
38865;SDS011;62686;48.984;8.394;2022-11-03T12:47:51;6.47;;;3.67;;
38865;SDS011;62686;48.984;8.394;2022-11-03T12:50:19;10.43;;;4.40;;
38865;SDS011;62686;48.984;8.394;2022-11-03T12:52:48;11.80;;;4.57;;
38865;SDS011;62686;48.984;8.394;2022-11-03T12:55:17;9.95;;;4.22;;
38865;SDS011;62686;48.984;8.394;2022-11-03T12:57:45;11.20;;;5.22;;
38865;SDS011;62686;48.984;8.394;2022-11-03T13:00:14;10.45;;;4.78;;
38865;SDS011;62686;48.984;8.394;2022-11-03T13:02:44;11.13;;;4.38;;
38865;SDS011;62686;48.984;8.394;2022-11-03T13:05:12;11.75;;;4.35;;
38865;SDS011;62686;48.984;8.394;2022-11-03T13:07:41;9.20;;;4.05;;
38865;SDS011;62686;48.984;8.394;2022-11-03T13:10:09;8.73;;;4.00;;
38865;SDS011;62686;48.984;8.394;2022-11-03T13:12:37;9.30;;;4.35;;
38865;SDS011;62686;48.984;8.394;2022-11-03T13:15:07;9.73;;;3.90;;
38865;SDS011;62686;48.984;8.394;2022-11-03T13:17:38;14.07;;;3.75;;
38865;SDS011;62686;48.984;8.394;2022-11-03T13:20:18;11.00;;;3.83;;
38865;SDS011;62686;48.984;8.394;2022-11-03T13:22:47;7.75;;;3.85;;
38865;SDS011;62686;48.984;8.394;2022-11-03T13:25:15;9.80;;;4.00;;
38865;SDS011;62686;48.984;8.394;2022-11-03T13:27:44;9.07;;;3.00;;
38865;SDS011;62686;48.984;8.394;2022-11-03T13:30:12;10.65;;;3.45;;
38865;SDS011;62686;48.984;8.394;2022-11-03T13:32:40;7.63;;;3.47;;
38865;SDS011;62686;48.984;8.394;2022-11-03T13:35:08;10.50;;;3.42;;
38865;SDS011;62686;48.984;8.394;2022-11-03T13:37:40;8.70;;;3.10;;
38865;SDS011;62686;48.984;8.394;2022-11-03T13:40:08;6.65;;;3.33;;
38865;SDS011;62686;48.984;8.394;2022-11-03T13:42:49;6.88;;;3.13;;
38865;SDS011;62686;48.984;8.394;2022-11-03T13:45:17;8.95;;;3.30;;
38865;SDS011;62686;48.984;8.394;2022-11-03T13:47:45;9.50;;;3.47;;
38865;SDS011;62686;48.984;8.394;2022-11-03T13:50:33;7.15;;;3.10;;
38865;SDS011;62686;48.984;8.394;2022-11-03T13:53:02;6.93;;;3.28;;
38865;SDS011;62686;48.984;8.394;2022-11-03T13:55:50;6.47;;;3.03;;
38865;SDS011;62686;48.984;8.394;2022-11-03T13:58:19;5.40;;;2.88;;
38865;SDS011;62686;48.984;8.394;2022-11-03T14:01:06;11.60;;;3.35;;
38865;SDS011;62686;48.984;8.394;2022-11-03T14:03:35;9.82;;;3.50;;
38865;SDS011;62686;48.984;8.394;2022-11-03T14:06:23;8.40;;;3.80;;
38865;SDS011;62686;48.984;8.394;2022-11-03T14:08:52;12.90;;;3.53;;
38865;SDS011;62686;48.984;8.394;2022-11-03T14:11:20;11.10;;;3.63;;
38865;SDS011;62686;48.984;8.394;2022-11-03T14:14:06;13.27;;;3.67;;
38865;SDS011;62686;48.984;8.394;2022-11-03T14:16:34;10.68;;;3.30;;
38865;SDS011;62686;48.984;8.394;2022-11-03T14:19:02;10.02;;;3.85;;
38865;SDS011;62686;48.984;8.394;2022-11-03T14:21:31;10.45;;;3.58;;
38865;SDS011;62686;48.984;8.394;2022-11-03T14:24:00;10.93;;;4.00;;
38865;SDS011;62686;48.984;8.394;2022-11-03T14:26:29;13.80;;;4.38;;
38865;SDS011;62686;48.984;8.394;2022-11-03T14:29:06;9.35;;;3.60;;
38865;SDS011;62686;48.984;8.394;2022-11-03T14:31:35;8.10;;;3.40;;
38865;SDS011;62686;48.984;8.394;2022-11-03T14:34:03;7.60;;;3.17;;
38865;SDS011;62686;48.984;8.394;2022-11-03T14:36:31;6.93;;;3.53;;
38865;SDS011;62686;48.984;8.394;2022-11-03T14:39:01;6.97;;;3.40;;
38865;SDS011;62686;48.984;8.394;2022-11-03T14:41:29;7.65;;;3.53;;
38865;SDS011;62686;48.984;8.394;2022-11-03T14:44:14;8.40;;;3.50;;
38865;SDS011;62686;48.984;8.394;2022-11-03T14:46:43;6.10;;;3.50;;
38865;SDS011;62686;48.984;8.394;2022-11-03T14:49:11;9.68;;;3.97;;
38865;SDS011;62686;48.984;8.394;2022-11-03T14:51:39;8.43;;;3.40;;
38865;SDS011;62686;48.984;8.394;2022-11-03T14:54:09;10.30;;;3.20;;
38865;SDS011;62686;48.984;8.394;2022-11-03T14:56:37;7.53;;;4.18;;
38865;SDS011;62686;48.984;8.394;2022-11-03T14:59:05;5.60;;;3.30;;
38865;SDS011;62686;48.984;8.394;2022-11-03T15:01:35;7.57;;;3.30;;
38865;SDS011;62686;48.984;8.394;2022-11-03T15:04:04;9.73;;;3.60;;
38865;SDS011;62686;48.984;8.394;2022-11-03T15:06:33;8.32;;;3.33;;
38865;SDS011;62686;48.984;8.394;2022-11-03T15:09:01;11.73;;;4.43;;
38865;SDS011;62686;48.984;8.394;2022-11-03T15:11:31;9.02;;;4.03;;
38865;SDS011;62686;48.984;8.394;2022-11-03T15:13:59;6.93;;;3.97;;
38865;SDS011;62686;48.984;8.394;2022-11-03T15:16:28;12.38;;;4.40;;
38865;SDS011;62686;48.984;8.394;2022-11-03T15:18:56;11.05;;;4.38;;
38865;SDS011;62686;48.984;8.394;2022-11-03T15:21:25;8.45;;;4.07;;
38865;SDS011;62686;48.984;8.394;2022-11-03T15:23:54;11.18;;;5.20;;
38865;SDS011;62686;48.984;8.394;2022-11-03T15:26:43;11.13;;;5.15;;
38865;SDS011;62686;48.984;8.394;2022-11-03T15:29:12;13.15;;;5.47;;
38865;SDS011;62686;48.984;8.394;2022-11-03T15:31:40;10.90;;;4.70;;
38865;SDS011;62686;48.984;8.394;2022-11-03T15:34:11;10.77;;;4.97;;
38865;SDS011;62686;48.984;8.394;2022-11-03T15:36:39;10.02;;;4.45;;